Time;durP1;ratioP1;P1;durP2;ratioP2;P2;SDS_P1;SDS_P2;PMS_P1;PMS_P2;Temp;Humidity;BMP_temperature;BMP_pressure;BME280_temperature;BME280_humidity;BME280_pressure;Samples;Min_cycle;Max_cycle;Signal;HPM_P1;HPM_P2
2020/12/16 00:01:13;;;;;;;7.33;4.23;;;;;;;6.98;82.95;99766.47;4940726;29;20035;-87
2020/12/16 00:04:24;;;;;;;5.85;4.70;;;;;;;7.10;82.62;99760.09;4952181;28;20039;-87
2020/12/16 00:07:35;;;;;;;6.30;4.27;;;;;;;7.11;84.06;99745.88;4941266;29;20119;-87
2020/12/16 00:10:45;;;;;;;8.32;3.90;;;;;;;7.15;82.79;99743.81;4943125;29;20086;-86
2020/12/16 00:13:55;;;;;;;6.45;4.00;;;;;;;7.24;81.72;99735.03;4944099;29;20414;-86
2020/12/16 00:17:07;;;;;;;7.10;4.20;;;;;;;7.22;80.92;99737.81;4944510;29;20487;-87
2020/12/16 00:20:18;;;;;;;6.88;3.88;;;;;;;7.24;81.20;99735.03;4955382;29;20040;-87
2020/12/16 00:23:28;;;;;;;4.90;3.50;;;;;;;7.07;81.36;99727.75;4945761;29;20051;-86
2020/12/16 00:26:38;;;;;;;6.32;3.90;;;;;;;7.15;81.35;99722.59;4944085;29;20403;-87
2020/12/16 00:29:47;;;;;;;5.68;3.70;;;;;;;7.17;79.86;99721.50;4943539;29;20407;-86
2020/12/16 00:32:58;;;;;;;4.88;3.53;;;;;;;7.17;81.02;99741.88;4927515;29;20411;-86
2020/12/16 00:36:08;;;;;;;6.57;3.73;;;;;;;7.07;84.61;99741.84;4927408;29;20039;-85
2020/12/16 00:39:17;;;;;;;6.53;4.55;;;;;;;6.99;85.22;99743.44;4955000;29;20391;-85
2020/12/16 00:42:26;;;;;;;7.65;4.47;;;;;;;6.94;86.00;99749.16;4927121;29;20055;-86
2020/12/16 00:45:36;;;;;;;6.83;5.00;;;;;;;6.91;86.94;99762.69;4943477;29;20043;-85
2020/12/16 00:48:46;;;;;;;7.27;5.27;;;;;;;6.95;87.51;99763.25;4943694;29;20047;-85
2020/12/16 00:51:56;;;;;;;8.52;5.57;;;;;;;7.03;86.11;99758.97;4943660;29;20035;-85
2020/12/16 00:55:09;;;;;;;10.13;5.50;;;;;;;6.96;86.42;99768.44;4943707;29;20039;-84
2020/12/16 00:58:20;;;;;;;6.40;4.60;;;;;;;6.96;86.38;99763.13;4927366;29;20043;-85
2020/12/16 01:01:37;;;;;;;6.85;4.95;;;;;;;6.93;87.20;99757.25;4944129;29;20047;-84
2020/12/16 01:04:48;;;;;;;7.55;5.93;;;;;;;6.74;88.03;99766.75;4955011;29;20050;-84
2020/12/16 01:07:58;;;;;;;8.13;5.00;;;;;;;6.85;87.82;99764.03;4943229;29;20045;-85
2020/12/16 01:11:10;;;;;;;6.50;4.13;;;;;;;7.29;89.30;99763.84;4943203;29;20046;-85
2020/12/16 01:14:20;;;;;;;5.55;4.20;;;;;;;7.45;84.93;99762.34;4932452;29;20050;-86
2020/12/16 01:17:31;;;;;;;7.13;4.20;;;;;;;7.27;83.14;99756.00;4916254;29;20391;-84
2020/12/16 01:20:42;;;;;;;7.10;3.75;;;;;;;6.87;85.49;99759.44;4942776;28;20485;-85
2020/12/16 01:24:06;;;;;;;5.13;3.67;;;;;;;6.99;85.69;99767.31;4954633;29;20043;-84
2020/12/16 01:27:19;;;;;;;4.65;3.70;;;;;;;6.98;84.48;99781.53;4953969;29;20039;-85
2020/12/16 01:30:32;;;;;;;5.80;3.90;;;;;;;7.10;84.58;99776.03;4931931;29;20054;-85
2020/12/16 01:33:42;;;;;;;5.50;4.13;;;;;;;7.07;86.22;99789.56;4926378;29;20070;-86
2020/12/16 01:37:04;;;;;;;6.60;3.80;;;;;;;7.08;86.73;99790.41;4937408;29;20051;-85
2020/12/16 01:40:22;;;;;;;7.00;3.97;;;;;;;7.09;86.52;99792.91;4926634;29;20051;-85
2020/12/16 01:43:41;;;;;;;5.60;4.03;;;;;;;7.24;83.82;99790.75;4917387;29;20078;-85
2020/12/16 01:47:01;;;;;;;4.38;2.97;;;;;;;7.20;84.21;99791.97;4925845;29;20408;-85
2020/12/16 01:50:27;;;;;;;4.32;3.47;;;;;;;7.22;83.37;99793.53;4917792;29;20043;-85
2020/12/16 01:53:46;;;;;;;4.22;3.08;;;;;;;7.21;84.60;99798.97;4924960;29;20052;-85
2020/12/16 01:56:59;;;;;;;4.70;3.05;;;;;;;7.31;84.53;99802.53;4884341;29;20396;-86
2020/12/16 02:00:27;;;;;;;4.18;2.83;;;;;;;7.35;84.10;99801.25;4918753;29;20051;-86
2020/12/16 02:03:47;;;;;;;5.57;2.67;;;;;;;7.36;84.92;99818.84;4915899;29;20520;-85
2020/12/16 02:07:11;;;;;;;4.78;2.55;;;;;;;7.37;84.00;99812.59;4919865;29;20036;-85
2020/12/16 02:10:25;;;;;;;3.25;2.50;;;;;;;7.42;83.79;99807.72;4904699;29;20075;-84
2020/12/16 02:13:35;;;;;;;4.25;2.58;;;;;;;7.42;83.31;99814.84;4926649;29;20491;-85
2020/12/16 02:16:46;;;;;;;4.85;2.80;;;;;;;7.35;83.97;99819.00;4916227;29;20044;-85
2020/12/16 02:20:00;;;;;;;4.50;2.78;;;;;;;7.35;84.11;99816.34;4895619;29;20055;-85
2020/12/16 02:23:25;;;;;;;4.15;2.70;;;;;;;7.33;83.86;99826.22;4916521;29;20404;-84
2020/12/16 02:26:46;;;;;;;5.72;2.42;;;;;;;7.31;81.78;99822.91;4897593;29;20052;-85
2020/12/16 02:29:58;;;;;;;2.65;2.33;;;;;;;7.41;82.05;99824.63;4915173;29;20048;-85
2020/12/16 02:33:23;;;;;;;2.72;2.00;;;;;;;7.44;81.45;99840.25;4933290;29;20055;-85
2020/12/16 02:36:39;;;;;;;2.37;1.90;;;;;;;7.44;81.58;99847.38;4915464;29;20063;-85
2020/12/16 02:39:56;;;;;;;4.15;2.30;;;;;;;7.33;82.00;99848.28;4915865;29;20617;-84
2020/12/16 02:43:11;;;;;;;2.58;1.88;;;;;;;7.44;81.59;99829.63;4932522;29;20410;-85
2020/12/16 02:46:21;;;;;;;3.70;2.05;;;;;;;7.83;81.80;99817.34;4935607;29;20054;-85
2020/12/16 02:49:31;;;;;;;2.40;1.95;;;;;;;7.74;81.90;99804.06;4930701;29;20039;-85
2020/12/16 02:52:43;;;;;;;2.10;1.63;;;;;;;7.75;83.61;99803.09;4936071;29;20062;-85
2020/12/16 02:55:58;;;;;;;4.85;1.83;;;;;;;7.50;83.86;99815.00;4940957;29;20498;-86
2020/12/16 02:59:14;;;;;;;4.03;1.80;;;;;;;7.45;85.28;99811.91;4953166;29;20391;-84
2020/12/16 03:02:30;;;;;;;2.33;2.10;;;;;;;7.35;84.39;99817.19;4915300;28;20055;-84
2020/12/16 03:05:59;;;;;;;4.18;1.90;;;;;;;7.18;84.91;99817.81;4936153;29;20537;-84
2020/12/16 03:09:27;;;;;;;4.03;2.00;;;;;;;7.34;84.37;99804.03;4939709;29;20043;-85
2020/12/16 03:12:39;;;;;;;2.58;1.75;;;;;;;7.37;82.49;99804.63;4952773;29;20043;-85
2020/12/16 03:15:50;;;;;;;2.63;1.48;;;;;;;7.40;83.64;99787.59;4941106;29;20035;-85
2020/12/16 03:19:03;;;;;;;2.60;1.80;;;;;;;7.29;83.28;99795.66;4941543;29;20387;-85
2020/12/16 03:22:13;;;;;;;2.70;1.50;;;;;;;6.96;84.83;99816.16;4924944;29;20051;-85
2020/12/16 03:25:39;;;;;;;6.63;2.00;;;;;;;6.84;87.64;99798.66;4933827;29;20042;-85
2020/12/16 03:29:07;;;;;;;4.17;2.20;;;;;;;7.13;86.63;99802.28;4922166;29;20368;-84
2020/12/16 03:32:36;;;;;;;2.78;2.00;;;;;;;7.19;86.66;99811.53;4924592;29;20047;-84
2020/12/16 03:36:00;;;;;;;3.38;2.10;;;;;;;7.36;84.77;99833.94;4945278;29;20106;-84
2020/12/16 03:39:13;;;;;;;2.85;1.70;;;;;;;7.55;85.58;99836.69;4942952;29;20072;-85
2020/12/16 03:42:25;;;;;;;4.40;2.20;;;;;;;7.55;86.71;99839.34;4924076;28;20047;-84
2020/12/16 03:45:35;;;;;;;5.10;3.05;;;;;;;7.35;85.24;99849.00;4943499;29;20043;-85
2020/12/16 03:48:47;;;;;;;4.35;3.42;;;;;;;7.44;86.07;99850.03;4944729;29;20391;-85
2020/12/16 03:51:59;;;;;;;7.57;3.70;;;;;;;7.48;85.67;99848.78;4944858;29;20043;-84
2020/12/16 03:55:21;;;;;;;4.45;2.60;;;;;;;7.45;87.79;99862.31;4938132;29;20052;-85
2020/12/16 03:58:50;;;;;;;4.57;3.53;;;;;;;7.39;87.50;99862.84;4955829;29;20039;-83
2020/12/16 04:02:17;;;;;;;6.25;4.72;;;;;;;7.34;87.84;99868.53;4939106;28;20499;-85
2020/12/16 04:05:44;;;;;;;9.20;5.90;;;;;;;7.35;87.20;99869.38;4928202;29;20408;-84
2020/12/16 04:08:56;;;;;;;4.47;2.42;;;;;;;7.20;88.21;99877.69;4927530;29;20421;-84
2020/12/16 04:12:21;;;;;;;3.92;2.70;;;;;;;7.16;90.20;99884.25;4927981;29;20059;-84
2020/12/16 04:15:30;;;;;;;3.42;2.88;;;;;;;7.15;90.08;99897.63;4927691;29;20397;-84
2020/12/16 04:18:41;;;;;;;5.03;2.70;;;;;;;7.11;91.75;99893.53;4926980;29;20062;-84
2020/12/16 04:21:55;;;;;;;5.40;3.77;;;;;;;7.15;91.59;99887.84;4928196;29;20048;-85
2020/12/16 04:25:10;;;;;;;3.80;2.30;;;;;;;7.89;91.72;99879.69;4955357;29;20054;-85
2020/12/16 04:28:23;;;;;;;4.32;2.50;;;;;;;7.70;87.71;99892.88;4955208;29;20039;-84
2020/12/16 04:31:34;;;;;;;3.15;2.60;;;;;;;7.44;90.07;99884.50;4933636;29;20051;-84
2020/12/16 04:34:44;;;;;;;3.42;2.72;;;;;;;7.28;90.17;99884.16;4955104;29;20047;-84
2020/12/16 04:37:56;;;;;;;4.68;3.63;;;;;;;7.12;90.34;99869.53;4943698;29;20039;-84
2020/12/16 04:41:10;;;;;;;5.17;4.00;;;;;;;6.82;91.58;99888.03;4933197;29;20047;-84
2020/12/16 04:44:27;;;;;;;7.53;4.97;;;;;;;6.58;92.61;99890.91;4920927;29;20052;-84
2020/12/16 04:47:51;;;;;;;5.83;5.00;;;;;;;6.80;91.57;99874.91;4916288;29;20040;-84
2020/12/16 04:51:04;;;;;;;7.53;5.10;;;;;;;7.03;90.55;99865.03;4919863;29;20054;-84
2020/12/16 04:54:15;;;;;;;8.57;5.63;;;;;;;6.96;91.15;99873.63;4917083;29;20039;-84
2020/12/16 04:57:25;;;;;;;6.37;5.07;;;;;;;6.93;91.15;99868.59;4916663;29;20063;-84
2020/12/16 05:00:38;;;;;;;7.68;5.45;;;;;;;6.99;92.69;99868.91;4916504;29;20044;-84
2020/12/16 05:03:57;;;;;;;4.53;3.60;;;;;;;6.90;92.67;99872.34;4926733;29;20056;-84
2020/12/16 05:07:32;;;;;;;8.47;3.63;;;;;;;6.94;93.54;99860.50;4905531;29;20403;-84
2020/12/16 05:10:46;;;;;;;4.15;3.25;;;;;;;7.38;91.45;99859.38;4927456;29;20044;-84
2020/12/16 05:14:10;;;;;;;7.67;4.03;;;;;;;7.25;88.97;99869.34;4920700;29;20063;-84
2020/12/16 05:17:21;;;;;;;4.82;3.53;;;;;;;7.33;89.68;99863.38;4916154;29;20047;-84
2020/12/16 05:20:59;;;;;;;6.57;4.13;;;;;;;7.35;90.94;99858.78;4920618;29;20048;-84
2020/12/16 05:24:21;;;;;;;8.30;4.10;;;;;;;7.39;90.61;99853.09;4931269;29;20113;-84
2020/12/16 05:27:34;;;;;;;5.90;4.00;;;;;;;7.38;90.73;99853.22;4916121;29;20052;-85
2020/12/16 05:30:56;;;;;;;6.95;4.05;;;;;;;7.26;89.83;99871.03;4905581;29;20052;-84
2020/12/16 05:34:07;;;;;;;4.85;3.67;;;;;;;7.08;91.13;99865.47;4915752;29;20392;-84
2020/12/16 05:37:37;;;;;;;4.78;3.60;;;;;;;6.98;92.02;99853.13;4931269;29;20056;-84
2020/12/16 05:40:49;;;;;;;5.47;4.05;;;;;;;6.86;92.16;99861.13;4915979;29;20043;-84
2020/12/16 05:44:20;;;;;;;7.10;3.65;;;;;;;6.60;93.28;99880.19;4911078;29;20499;-84
2020/12/16 05:47:31;;;;;;;6.72;4.93;;;;;;;6.59;93.26;99875.88;4926303;29;20516;-84
2020/12/16 05:50:44;;;;;;;6.07;4.20;;;;;;;6.63;93.70;99867.50;4915944;29;20040;-85
2020/12/16 05:53:54;;;;;;;6.23;3.77;;;;;;;6.63;93.47;99869.31;4904131;29;20048;-84
2020/12/16 05:57:29;;;;;;;7.03;4.60;;;;;;;6.72;94.23;99876.53;4904673;29;20054;-84
2020/12/16 06:01:02;;;;;;;4.87;3.97;;;;;;;7.00;94.93;99891.78;4926820;29;20040;-85
2020/12/16 06:04:13;;;;;;;11.07;3.67;;;;;;;6.52;92.79;99894.06;4915350;29;20040;-84
2020/12/16 06:07:23;;;;;;;;;;;;;;;6.41;93.12;99892.28;4909402;29;20519;-84
2020/12/16 06:10:40;;;;;;;6.73;3.50;;;;;;;6.53;93.17;99903.69;4915555;29;20390;-84
2020/12/16 06:13:52;;;;;;;7.47;4.30;;;;;;;6.35;92.98;99903.41;4908562;29;20047;-83
2020/12/16 06:17:15;;;;;;;7.82;4.53;;;;;;;6.38;92.47;99910.22;4915115;29;20055;-84
2020/12/16 06:20:27;;;;;;;7.10;4.93;;;;;;;6.56;92.33;99908.75;4893647;29;20060;-84
2020/12/16 06:23:39;;;;;;;;;;;;;;;6.65;91.88;99917.72;4915258;29;20048;-84
2020/12/16 06:27:05;;;;;;;10.93;6.93;;;;;;;6.88;90.97;99919.31;4904443;29;20286;-83
2020/12/16 06:30:35;;;;;;;13.43;6.93;;;;;;;6.81;91.82;99923.47;4904055;29;20044;-84
2020/12/16 06:34:05;;;;;;;9.90;5.30;;;;;;;6.73;91.72;99925.88;4904644;29;20040;-84
2020/12/16 06:37:17;;;;;;;9.60;6.10;;;;;;;6.77;91.37;99929.97;4904533;29;20068;-83
2020/12/16 06:40:46;;;;;;;9.93;6.47;;;;;;;6.85;91.21;99932.81;4904727;29;20052;-83
2020/12/16 06:44:00;;;;;;;9.23;5.17;;;;;;;6.83;91.42;99937.44;4939887;28;20058;-84
2020/12/16 06:47:25;;;;;;;9.27;5.33;;;;;;;6.92;92.18;99936.66;4921837;29;20054;-84
2020/12/16 06:50:36;;;;;;;8.70;4.53;;;;;;;7.28;88.61;99950.47;4913142;29;20044;-83
2020/12/16 06:53:50;;;;;;;7.43;5.20;;;;;;;7.21;88.42;99956.28;4933757;29;20040;-84
2020/12/16 06:57:16;;;;;;;;;;;;;;;7.16;90.97;99957.66;4945696;29;20047;-84
2020/12/16 07:00:31;;;;;;;7.40;3.95;;;;;;;7.13;90.50;99956.09;4923694;29;19950;-84
2020/12/16 07:03:44;;;;;;;7.30;4.20;;;;;;;7.09;91.31;99953.81;4944669;28;20039;-84
2020/12/16 07:06:53;;;;;;;5.53;3.72;;;;;;;7.12;90.88;99953.56;4932180;29;20060;-84
2020/12/16 07:10:05;;;;;;;5.32;4.03;;;;;;;7.11;91.24;99958.03;4922927;29;20043;-84
2020/12/16 07:13:16;;;;;;;6.20;4.50;;;;;;;7.16;91.30;99960.31;4926743;29;20047;-84
2020/12/16 07:16:36;;;;;;;7.07;4.68;;;;;;;7.16;92.11;99958.50;4933755;29;20040;-84
2020/12/16 07:19:47;;;;;;;7.35;4.28;;;;;;;7.32;92.27;99963.34;4928722;29;20488;-83
2020/12/16 07:22:59;;;;;;;8.07;4.60;;;;;;;7.36;91.22;99970.06;4926817;29;20047;-83
2020/12/16 07:26:11;;;;;;;8.27;4.70;;;;;;;7.40;91.22;99989.22;4937796;29;20036;-83
2020/12/16 07:29:40;;;;;;;6.18;4.40;;;;;;;6.99;93.05;99988.22;4937886;29;20043;-83
2020/12/16 07:32:51;;;;;;;7.75;4.50;;;;;;;7.84;94.77;99973.00;4925626;29;20059;-84
2020/12/16 07:36:02;;;;;;;8.13;5.60;;;;;;;8.14;90.75;99971.34;4927005;29;20047;-85
2020/12/16 07:39:12;;;;;;;7.95;5.45;;;;;;;8.09;87.84;99974.38;4941659;29;20040;-84
2020/12/16 07:42:36;;;;;;;10.00;6.30;;;;;;;7.74;89.30;99987.22;4933176;29;20044;-84
2020/12/16 07:46:01;;;;;;;11.27;8.63;;;;;;;7.93;89.03;99993.44;4928500;29;20063;-84
2020/12/16 07:49:16;;;;;;;9.13;6.13;;;;;;;8.14;88.91;99985.44;4944950;29;20051;-83
2020/12/16 07:52:28;;;;;;;5.78;4.63;;;;;;;8.03;88.65;99990.00;4944697;29;20035;-83
2020/12/16 07:55:40;;;;;;;7.25;5.35;;;;;;;7.94;89.09;99994.28;4944897;29;20032;-83
2020/12/16 07:58:54;;;;;;;11.90;6.65;;;;;;;7.92;89.46;99993.59;4944882;29;20057;-84
2020/12/16 08:02:15;;;;;;;9.65;7.38;;;;;;;7.94;89.13;100008.41;4944321;29;20494;-84
2020/12/16 08:05:26;;;;;;;11.23;8.70;;;;;;;7.92;89.93;100017.47;4944595;29;20062;-84
2020/12/16 08:08:48;;;;;;;11.80;8.25;;;;;;;8.04;89.89;100026.19;4944196;29;20398;-84
2020/12/16 08:12:00;;;;;;;8.05;6.20;;;;;;;8.12;89.54;100029.91;4944934;29;20043;-84
2020/12/16 08:15:17;;;;;;;9.32;5.85;;;;;;;8.09;90.05;100027.50;4944308;29;20047;-84
2020/12/16 08:18:28;;;;;;;7.75;5.50;;;;;;;9.17;87.39;100028.53;4944684;29;20038;-85
2020/12/16 08:21:39;;;;;;;9.40;6.00;;;;;;;9.39;83.27;100025.59;4959202;28;20047;-84
2020/12/16 08:25:08;;;;;;;11.23;6.50;;;;;;;8.82;84.56;100025.56;4933233;29;20051;-84
2020/12/16 08:28:28;;;;;;;8.50;4.95;;;;;;;8.56;86.71;100028.69;4944565;29;20039;-84
2020/12/16 08:31:40;;;;;;;8.32;5.53;;;;;;;8.48;88.36;100031.19;4943729;29;20036;-84
2020/12/16 08:34:54;;;;;;;11.00;6.60;;;;;;;8.30;89.09;100038.91;4944093;29;20036;-84
2020/12/16 08:38:11;;;;;;;10.55;6.78;;;;;;;8.36;91.50;100036.75;4955174;29;20495;-84
2020/12/16 08:41:27;;;;;;;12.38;7.30;;;;;;;8.39;91.34;100025.81;4932982;29;20036;-84
2020/12/16 08:44:39;;;;;;;14.73;8.00;;;;;;;8.39;91.41;100020.50;4935825;29;20059;-83
2020/12/16 08:47:49;;;;;;;;;;;;;;;8.48;92.16;100015.25;4929582;29;20056;-83
2020/12/16 08:51:11;;;;;;;23.73;10.30;;;;;;;8.59;91.22;100031.09;4904942;29;19919;-83
2020/12/16 08:54:28;;;;;;;11.48;8.52;;;;;;;8.59;91.07;100033.75;4914239;29;20048;-83
2020/12/16 08:57:38;;;;;;;14.63;8.55;;;;;;;8.74;92.11;100025.38;4924880;29;20031;-83
2020/12/16 09:00:49;;;;;;;13.27;8.40;;;;;;;9.43;89.33;100028.81;4929912;29;20051;-83
2020/12/16 09:04:01;;;;;;;16.27;8.93;;;;;;;9.35;88.14;100032.16;4924780;29;20047;-83
2020/12/16 09:07:14;;;;;;;13.35;8.95;;;;;;;9.21;88.53;100035.22;4946811;29;20047;-84
2020/12/16 09:10:29;;;;;;;13.50;9.05;;;;;;;9.15;89.47;100034.97;4924849;29;20518;-83
2020/12/16 09:13:41;;;;;;;15.18;9.32;;;;;;;9.27;89.88;100034.69;4925304;29;20047;-82
2020/12/16 09:16:55;;;;;;;15.02;9.63;;;;;;;9.25;90.23;100041.13;4924847;29;20044;-83
2020/12/16 09:20:15;;;;;;;13.75;9.65;;;;;;;9.32;90.42;100039.59;4940341;29;20055;-83
2020/12/16 09:23:30;;;;;;;19.80;11.95;;;;;;;9.34;89.20;100041.13;4928229;29;20056;-83
2020/12/16 09:26:44;;;;;;;17.42;13.23;;;;;;;9.53;89.65;100034.13;4924309;29;20502;-83
2020/12/16 09:29:55;;;;;;;18.00;12.63;;;;;;;9.73;89.07;100033.97;4924313;29;20395;-83
2020/12/16 09:33:23;;;;;;;20.52;14.10;;;;;;;9.80;86.21;100044.88;4912782;29;20511;-83
2020/12/16 09:36:35;;;;;;;16.45;12.52;;;;;;;9.79;87.29;100045.88;4924041;29;20047;-83
2020/12/16 09:39:50;;;;;;;17.30;11.75;;;;;;;10.05;87.33;100035.41;4935419;29;20048;-83
